sensor_id;sensor_type;location;lat;lon;timestamp;P1;durP1;ratioP1;P2;durP2;ratioP2
57667;SDS011;43499;52.366;12.912;2023-08-30T00:00:50;0.85;;;0.57;;
57667;SDS011;43499;52.366;12.912;2023-08-30T00:01:51;1.15;;;0.68;;
57667;SDS011;43499;52.366;12.912;2023-08-30T00:02:52;1.13;;;0.50;;
57667;SDS011;43499;52.366;12.912;2023-08-30T00:03:54;2.47;;;0.63;;
57667;SDS011;43499;52.366;12.912;2023-08-30T00:04:59;2.03;;;0.60;;
57667;SDS011;43499;52.366;12.912;2023-08-30T00:06:03;1.98;;;0.80;;
57667;SDS011;43499;52.366;12.912;2023-08-30T00:07:05;0.85;;;0.60;;
57667;SDS011;43499;52.366;12.912;2023-08-30T00:08:06;1.33;;;0.60;;
57667;SDS011;43499;52.366;12.912;2023-08-30T00:09:07;1.20;;;0.60;;
57667;SDS011;43499;52.366;12.912;2023-08-30T00:11:11;1.38;;;0.65;;
57667;SDS011;43499;52.366;12.912;2023-08-30T00:12:12;1.92;;;0.73;;
57667;SDS011;43499;52.366;12.912;2023-08-30T00:13:13;2.45;;;0.70;;
57667;SDS011;43499;52.366;12.912;2023-08-30T00:14:14;1.58;;;1.00;;
57667;SDS011;43499;52.366;12.912;2023-08-30T00:15:15;5.60;;;0.73;;
57667;SDS011;43499;52.366;12.912;2023-08-30T00:16:16;1.90;;;0.63;;
57667;SDS011;43499;52.366;12.912;2023-08-30T00:17:19;1.20;;;0.65;;
57667;SDS011;43499;52.366;12.912;2023-08-30T00:18:20;1.10;;;0.85;;
57667;SDS011;43499;52.366;12.912;2023-08-30T00:19:22;1.02;;;0.70;;
57667;SDS011;43499;52.366;12.912;2023-08-30T00:20:24;1.95;;;0.60;;
57667;SDS011;43499;52.366;12.912;2023-08-30T00:21:25;1.13;;;0.70;;
57667;SDS011;43499;52.366;12.912;2023-08-30T00:22:28;1.63;;;0.60;;
57667;SDS011;43499;52.366;12.912;2023-08-30T00:24:30;2.33;;;0.50;;
57667;SDS011;43499;52.366;12.912;2023-08-30T00:25:31;1.63;;;0.70;;
57667;SDS011;43499;52.366;12.912;2023-08-30T00:26:32;1.20;;;0.50;;
57667;SDS011;43499;52.366;12.912;2023-08-30T00:27:36;2.25;;;0.90;;
57667;SDS011;43499;52.366;12.912;2023-08-30T00:28:38;4.75;;;0.80;;
57667;SDS011;43499;52.366;12.912;2023-08-30T00:29:39;1.95;;;1.27;;
57667;SDS011;43499;52.366;12.912;2023-08-30T00:30:41;2.25;;;0.90;;
57667;SDS011;43499;52.366;12.912;2023-08-30T00:31:42;3.15;;;0.68;;
57667;SDS011;43499;52.366;12.912;2023-08-30T00:32:43;2.05;;;0.70;;
57667;SDS011;43499;52.366;12.912;2023-08-30T00:33:45;2.08;;;0.85;;
57667;SDS011;43499;52.366;12.912;2023-08-30T00:34:49;2.92;;;0.90;;
57667;SDS011;43499;52.366;12.912;2023-08-30T00:35:57;1.88;;;0.63;;
57667;SDS011;43499;52.366;12.912;2023-08-30T00:36:59;2.80;;;0.80;;
57667;SDS011;43499;52.366;12.912;2023-08-30T00:38:02;0.60;;;0.50;;
57667;SDS011;43499;52.366;12.912;2023-08-30T00:40:05;2.10;;;0.77;;
57667;SDS011;43499;52.366;12.912;2023-08-30T00:41:07;5.88;;;0.80;;
57667;SDS011;43499;52.366;12.912;2023-08-30T00:42:08;2.38;;;0.95;;
57667;SDS011;43499;52.366;12.912;2023-08-30T00:43:10;1.30;;;0.80;;
57667;SDS011;43499;52.366;12.912;2023-08-30T00:44:12;3.15;;;1.05;;
57667;SDS011;43499;52.366;12.912;2023-08-30T00:45:13;1.20;;;0.90;;
57667;SDS011;43499;52.366;12.912;2023-08-30T00:46:14;2.67;;;0.80;;
57667;SDS011;43499;52.366;12.912;2023-08-30T00:47:17;1.17;;;0.82;;
57667;SDS011;43499;52.366;12.912;2023-08-30T00:49:20;0.85;;;0.68;;
57667;SDS011;43499;52.366;12.912;2023-08-30T00:50:21;1.27;;;0.75;;
57667;SDS011;43499;52.366;12.912;2023-08-30T00:51:24;2.88;;;1.15;;
57667;SDS011;43499;52.366;12.912;2023-08-30T00:53:26;2.13;;;0.90;;
57667;SDS011;43499;52.366;12.912;2023-08-30T00:54:28;3.95;;;0.90;;
57667;SDS011;43499;52.366;12.912;2023-08-30T00:55:29;2.47;;;0.90;;
57667;SDS011;43499;52.366;12.912;2023-08-30T00:56:30;1.48;;;1.25;;
57667;SDS011;43499;52.366;12.912;2023-08-30T00:57:33;1.33;;;0.90;;
57667;SDS011;43499;52.366;12.912;2023-08-30T00:58:34;2.78;;;1.40;;
57667;SDS011;43499;52.366;12.912;2023-08-30T01:00:37;2.38;;;0.93;;
57667;SDS011;43499;52.366;12.912;2023-08-30T01:01:40;1.80;;;1.20;;
57667;SDS011;43499;52.366;12.912;2023-08-30T01:02:42;4.68;;;1.40;;
57667;SDS011;43499;52.366;12.912;2023-08-30T01:03:43;1.92;;;1.52;;
57667;SDS011;43499;52.366;12.912;2023-08-30T01:04:45;2.60;;;1.80;;
57667;SDS011;43499;52.366;12.912;2023-08-30T01:05:47;6.88;;;1.67;;
57667;SDS011;43499;52.366;12.912;2023-08-30T01:06:48;1.85;;;1.10;;
57667;SDS011;43499;52.366;12.912;2023-08-30T01:07:50;4.50;;;1.45;;
57667;SDS011;43499;52.366;12.912;2023-08-30T01:08:52;1.92;;;1.48;;
57667;SDS011;43499;52.366;12.912;2023-08-30T01:09:53;3.47;;;1.65;;
57667;SDS011;43499;52.366;12.912;2023-08-30T01:12:37;2.10;;;1.52;;
57667;SDS011;43499;52.366;12.912;2023-08-30T01:13:45;2.35;;;1.73;;
57667;SDS011;43499;52.366;12.912;2023-08-30T01:15:18;2.67;;;1.50;;
57667;SDS011;43499;52.366;12.912;2023-08-30T01:16:21;4.20;;;2.67;;
57667;SDS011;43499;52.366;12.912;2023-08-30T01:17:27;2.63;;;1.48;;
57667;SDS011;43499;52.366;12.912;2023-08-30T01:18:31;7.15;;;1.85;;
57667;SDS011;43499;52.366;12.912;2023-08-30T01:20:59;2.17;;;1.95;;
57667;SDS011;43499;52.366;12.912;2023-08-30T01:22:17;4.68;;;3.03;;
57667;SDS011;43499;52.366;12.912;2023-08-30T01:23:39;2.42;;;1.98;;
57667;SDS011;43499;52.366;12.912;2023-08-30T01:24:58;2.55;;;2.03;;
57667;SDS011;43499;52.366;12.912;2023-08-30T01:26:11;3.45;;;2.08;;
57667;SDS011;43499;52.366;12.912;2023-08-30T01:27:18;2.67;;;2.20;;
57667;SDS011;43499;52.366;12.912;2023-08-30T01:28:22;2.83;;;2.20;;
57667;SDS011;43499;52.366;12.912;2023-08-30T01:29:27;2.88;;;1.88;;
57667;SDS011;43499;52.366;12.912;2023-08-30T01:30:31;3.50;;;2.60;;
57667;SDS011;43499;52.366;12.912;2023-08-30T01:31:34;5.53;;;3.25;;
57667;SDS011;43499;52.366;12.912;2023-08-30T01:32:36;3.28;;;2.55;;
57667;SDS011;43499;52.366;12.912;2023-08-30T01:33:38;3.05;;;2.70;;
57667;SDS011;43499;52.366;12.912;2023-08-30T01:34:41;5.65;;;3.30;;
57667;SDS011;43499;52.366;12.912;2023-08-30T01:35:44;6.78;;;2.45;;
57667;SDS011;43499;52.366;12.912;2023-08-30T01:36:46;6.22;;;2.75;;
57667;SDS011;43499;52.366;12.912;2023-08-30T01:37:47;3.30;;;2.42;;
57667;SDS011;43499;52.366;12.912;2023-08-30T01:38:50;3.20;;;2.60;;
57667;SDS011;43499;52.366;12.912;2023-08-30T01:39:52;4.05;;;2.67;;
57667;SDS011;43499;52.366;12.912;2023-08-30T01:40:54;3.17;;;2.70;;
57667;SDS011;43499;52.366;12.912;2023-08-30T01:41:58;3.63;;;2.38;;
57667;SDS011;43499;52.366;12.912;2023-08-30T01:43:01;3.28;;;2.53;;
57667;SDS011;43499;52.366;12.912;2023-08-30T01:44:05;3.60;;;2.65;;
57667;SDS011;43499;52.366;12.912;2023-08-30T01:45:08;3.15;;;2.30;;
57667;SDS011;43499;52.366;12.912;2023-08-30T01:46:14;5.03;;;2.58;;
57667;SDS011;43499;52.366;12.912;2023-08-30T01:47:19;4.03;;;2.40;;
57667;SDS011;43499;52.366;12.912;2023-08-30T01:48:20;5.82;;;2.55;;
57667;SDS011;43499;52.366;12.912;2023-08-30T01:49:25;10.43;;;4.15;;
57667;SDS011;43499;52.366;12.912;2023-08-30T01:50:27;6.78;;;2.75;;
57667;SDS011;43499;52.366;12.912;2023-08-30T01:51:28;4.35;;;2.72;;
57667;SDS011;43499;52.366;12.912;2023-08-30T01:52:30;8.38;;;2.85;;
57667;SDS011;43499;52.366;12.912;2023-08-30T01:53:33;5.90;;;2.53;;
57667;SDS011;43499;52.366;12.912;2023-08-30T01:54:35;4.25;;;2.22;;
57667;SDS011;43499;52.366;12.912;2023-08-30T01:55:40;4.22;;;2.45;;
57667;SDS011;43499;52.366;12.912;2023-08-30T01:56:42;3.13;;;2.60;;
57667;SDS011;43499;52.366;12.912;2023-08-30T01:57:44;4.15;;;2.75;;
57667;SDS011;43499;52.366;12.912;2023-08-30T01:58:45;3.60;;;2.40;;
57667;SDS011;43499;52.366;12.912;2023-08-30T01:59:46;7.00;;;2.47;;
57667;SDS011;43499;52.366;12.912;2023-08-30T02:00:47;5.97;;;2.88;;
57667;SDS011;43499;52.366;12.912;2023-08-30T02:01:48;4.22;;;2.92;;
57667;SDS011;43499;52.366;12.912;2023-08-30T02:02:50;3.70;;;2.45;;
57667;SDS011;43499;52.366;12.912;2023-08-30T02:03:51;4.95;;;2.38;;
57667;SDS011;43499;52.366;12.912;2023-08-30T02:04:52;6.85;;;3.47;;
57667;SDS011;43499;52.366;12.912;2023-08-30T02:07:17;4.82;;;2.58;;
57667;SDS011;43499;52.366;12.912;2023-08-30T02:08:25;3.90;;;2.35;;
57667;SDS011;43499;52.366;12.912;2023-08-30T02:09:39;2.95;;;2.33;;
57667;SDS011;43499;52.366;12.912;2023-08-30T02:10:55;4.22;;;2.38;;
57667;SDS011;43499;52.366;12.912;2023-08-30T02:12:03;4.07;;;2.78;;
57667;SDS011;43499;52.366;12.912;2023-08-30T02:13:08;3.03;;;2.10;;
57667;SDS011;43499;52.366;12.912;2023-08-30T02:14:12;4.10;;;2.80;;
57667;SDS011;43499;52.366;12.912;2023-08-30T02:15:18;4.63;;;2.63;;
57667;SDS011;43499;52.366;12.912;2023-08-30T02:16:20;5.20;;;2.58;;
57667;SDS011;43499;52.366;12.912;2023-08-30T02:17:23;3.40;;;2.60;;
57667;SDS011;43499;52.366;12.912;2023-08-30T02:18:24;3.83;;;2.90;;
57667;SDS011;43499;52.366;12.912;2023-08-30T02:19:28;2.97;;;2.47;;
57667;SDS011;43499;52.366;12.912;2023-08-30T02:20:30;2.95;;;2.30;;
57667;SDS011;43499;52.366;12.912;2023-08-30T02:21:31;6.20;;;2.75;;
57667;SDS011;43499;52.366;12.912;2023-08-30T02:22:33;3.90;;;2.90;;
57667;SDS011;43499;52.366;12.912;2023-08-30T02:23:34;4.47;;;2.88;;
57667;SDS011;43499;52.366;12.912;2023-08-30T02:24:35;4.53;;;2.88;;
57667;SDS011;43499;52.366;12.912;2023-08-30T02:25:36;4.68;;;2.35;;
57667;SDS011;43499;52.366;12.912;2023-08-30T02:26:38;4.00;;;2.47;;
57667;SDS011;43499;52.366;12.912;2023-08-30T02:27:39;6.25;;;2.50;;
57667;SDS011;43499;52.366;12.912;2023-08-30T02:28:40;3.35;;;2.70;;
57667;SDS011;43499;52.366;12.912;2023-08-30T02:29:41;4.32;;;2.60;;
57667;SDS011;43499;52.366;12.912;2023-08-30T02:30:42;3.72;;;2.53;;
57667;SDS011;43499;52.366;12.912;2023-08-30T02:31:43;3.92;;;2.35;;
57667;SDS011;43499;52.366;12.912;2023-08-30T02:32:44;3.53;;;2.70;;
57667;SDS011;43499;52.366;12.912;2023-08-30T02:33:45;4.50;;;2.67;;
57667;SDS011;43499;52.366;12.912;2023-08-30T02:34:49;4.60;;;2.63;;
57667;SDS011;43499;52.366;12.912;2023-08-30T02:35:51;5.85;;;3.50;;
57667;SDS011;43499;52.366;12.912;2023-08-30T02:36:54;4.28;;;2.92;;
57667;SDS011;43499;52.366;12.912;2023-08-30T02:37:55;4.80;;;2.50;;
57667;SDS011;43499;52.366;12.912;2023-08-30T02:38:57;3.00;;;2.15;;
57667;SDS011;43499;52.366;12.912;2023-08-30T02:39:58;5.18;;;2.78;;
57667;SDS011;43499;52.366;12.912;2023-08-30T02:40:59;3.45;;;2.47;;
57667;SDS011;43499;52.366;12.912;2023-08-30T02:42:00;3.35;;;2.38;;
57667;SDS011;43499;52.366;12.912;2023-08-30T02:43:01;4.10;;;2.30;;
57667;SDS011;43499;52.366;12.912;2023-08-30T02:44:03;3.70;;;2.53;;
57667;SDS011;43499;52.366;12.912;2023-08-30T02:45:04;5.15;;;2.63;;
57667;SDS011;43499;52.366;12.912;2023-08-30T02:46:06;4.38;;;2.58;;
57667;SDS011;43499;52.366;12.912;2023-08-30T02:47:07;2.80;;;2.55;;
57667;SDS011;43499;52.366;12.912;2023-08-30T02:48:08;4.45;;;2.70;;
57667;SDS011;43499;52.366;12.912;2023-08-30T02:49:09;4.57;;;2.53;;
57667;SDS011;43499;52.366;12.912;2023-08-30T02:50:12;4.45;;;2.92;;
57667;SDS011;43499;52.366;12.912;2023-08-30T02:51:13;2.80;;;1.90;;
57667;SDS011;43499;52.366;12.912;2023-08-30T02:52:14;3.53;;;2.40;;
57667;SDS011;43499;52.366;12.912;2023-08-30T02:53:15;4.07;;;2.22;;
57667;SDS011;43499;52.366;12.912;2023-08-30T02:54:16;4.32;;;2.38;;
57667;SDS011;43499;52.366;12.912;2023-08-30T02:55:18;3.13;;;2.13;;
57667;SDS011;43499;52.366;12.912;2023-08-30T02:56:19;4.32;;;2.72;;
57667;SDS011;43499;52.366;12.912;2023-08-30T02:57:20;2.13;;;1.75;;
57667;SDS011;43499;52.366;12.912;2023-08-30T02:58:21;5.15;;;2.30;;
57667;SDS011;43499;52.366;12.912;2023-08-30T03:00:23;2.05;;;1.80;;
57667;SDS011;43499;52.366;12.912;2023-08-30T03:01:25;3.03;;;2.33;;
57667;SDS011;43499;52.366;12.912;2023-08-30T03:02:26;2.28;;;1.83;;
57667;SDS011;43499;52.366;12.912;2023-08-30T03:03:27;1.77;;;1.67;;
57667;SDS011;43499;52.366;12.912;2023-08-30T03:04:28;4.20;;;2.55;;
57667;SDS011;43499;52.366;12.912;2023-08-30T03:05:30;3.17;;;1.67;;
57667;SDS011;43499;52.366;12.912;2023-08-30T03:06:34;4.25;;;2.08;;
57667;SDS011;43499;52.366;12.912;2023-08-30T03:07:36;4.28;;;2.03;;
57667;SDS011;43499;52.366;12.912;2023-08-30T03:08:37;2.72;;;2.13;;
57667;SDS011;43499;52.366;12.912;2023-08-30T03:09:38;4.72;;;2.30;;
57667;SDS011;43499;52.366;12.912;2023-08-30T03:10:39;4.63;;;2.20;;
57667;SDS011;43499;52.366;12.912;2023-08-30T03:11:41;3.90;;;2.10;;
57667;SDS011;43499;52.366;12.912;2023-08-30T03:12:43;5.65;;;2.83;;
57667;SDS011;43499;52.366;12.912;2023-08-30T03:13:44;3.50;;;2.15;;
57667;SDS011;43499;52.366;12.912;2023-08-30T03:14:45;6.75;;;2.95;;
57667;SDS011;43499;52.366;12.912;2023-08-30T03:15:47;4.68;;;2.35;;
57667;SDS011;43499;52.366;12.912;2023-08-30T03:16:48;6.07;;;2.38;;
57667;SDS011;43499;52.366;12.912;2023-08-30T03:17:50;5.35;;;1.67;;
57667;SDS011;43499;52.366;12.912;2023-08-30T03:18:51;3.53;;;3.10;;
57667;SDS011;43499;52.366;12.912;2023-08-30T03:19:52;3.25;;;2.15;;
57667;SDS011;43499;52.366;12.912;2023-08-30T03:21:00;3.80;;;2.05;;
57667;SDS011;43499;52.366;12.912;2023-08-30T03:22:03;2.17;;;1.65;;
57667;SDS011;43499;52.366;12.912;2023-08-30T03:23:04;3.55;;;2.58;;
57667;SDS011;43499;52.366;12.912;2023-08-30T03:24:08;3.15;;;2.17;;
57667;SDS011;43499;52.366;12.912;2023-08-30T03:25:10;6.10;;;2.50;;
57667;SDS011;43499;52.366;12.912;2023-08-30T03:26:14;2.88;;;2.08;;
57667;SDS011;43499;52.366;12.912;2023-08-30T03:27:16;3.67;;;1.77;;
57667;SDS011;43499;52.366;12.912;2023-08-30T03:28:20;3.40;;;1.77;;
57667;SDS011;43499;52.366;12.912;2023-08-30T03:29:21;3.63;;;2.00;;
57667;SDS011;43499;52.366;12.912;2023-08-30T03:30:22;2.47;;;2.10;;
57667;SDS011;43499;52.366;12.912;2023-08-30T03:31:24;3.00;;;2.22;;
57667;SDS011;43499;52.366;12.912;2023-08-30T03:32:26;2.63;;;1.92;;
57667;SDS011;43499;52.366;12.912;2023-08-30T03:33:27;2.47;;;2.05;;
57667;SDS011;43499;52.366;12.912;2023-08-30T03:34:28;3.83;;;2.00;;
57667;SDS011;43499;52.366;12.912;2023-08-30T03:35:33;4.90;;;2.17;;
57667;SDS011;43499;52.366;12.912;2023-08-30T03:36:36;2.45;;;2.08;;
57667;SDS011;43499;52.366;12.912;2023-08-30T03:37:38;3.78;;;2.40;;
57667;SDS011;43499;52.366;12.912;2023-08-30T03:38:39;3.15;;;2.10;;
57667;SDS011;43499;52.366;12.912;2023-08-30T03:39:41;2.38;;;2.13;;
57667;SDS011;43499;52.366;12.912;2023-08-30T03:41:44;5.00;;;2.95;;
57667;SDS011;43499;52.366;12.912;2023-08-30T03:42:46;3.45;;;2.25;;
57667;SDS011;43499;52.366;12.912;2023-08-30T03:43:47;2.55;;;2.13;;
57667;SDS011;43499;52.366;12.912;2023-08-30T03:44:48;3.55;;;2.35;;
57667;SDS011;43499;52.366;12.912;2023-08-30T03:45:49;2.97;;;2.05;;
57667;SDS011;43499;52.366;12.912;2023-08-30T03:46:53;4.03;;;2.85;;
57667;SDS011;43499;52.366;12.912;2023-08-30T03:47:54;2.50;;;1.95;;
57667;SDS011;43499;52.366;12.912;2023-08-30T03:48:55;3.85;;;2.13;;
57667;SDS011;43499;52.366;12.912;2023-08-30T03:50:59;3.83;;;2.17;;
57667;SDS011;43499;52.366;12.912;2023-08-30T03:52:01;5.07;;;3.35;;
57667;SDS011;43499;52.366;12.912;2023-08-30T03:53:03;5.45;;;2.63;;
57667;SDS011;43499;52.366;12.912;2023-08-30T03:54:04;4.25;;;2.60;;
57667;SDS011;43499;52.366;12.912;2023-08-30T03:55:05;2.85;;;2.15;;
57667;SDS011;43499;52.366;12.912;2023-08-30T03:56:06;3.55;;;3.13;;
57667;SDS011;43499;52.366;12.912;2023-08-30T03:58:09;3.20;;;2.35;;
57667;SDS011;43499;52.366;12.912;2023-08-30T03:59:13;2.28;;;2.08;;
57667;SDS011;43499;52.366;12.912;2023-08-30T04:00:14;9.82;;;2.17;;
57667;SDS011;43499;52.366;12.912;2023-08-30T04:01:16;3.08;;;2.17;;
57667;SDS011;43499;52.366;12.912;2023-08-30T04:02:17;6.03;;;2.22;;
57667;SDS011;43499;52.366;12.912;2023-08-30T04:03:18;4.43;;;2.78;;
57667;SDS011;43499;52.366;12.912;2023-08-30T04:04:20;2.65;;;2.22;;
57667;SDS011;43499;52.366;12.912;2023-08-30T04:05:23;4.55;;;2.13;;
57667;SDS011;43499;52.366;12.912;2023-08-30T04:06:25;6.03;;;1.92;;
57667;SDS011;43499;52.366;12.912;2023-08-30T04:07:26;5.32;;;2.47;;
57667;SDS011;43499;52.366;12.912;2023-08-30T04:08:27;3.33;;;2.13;;
57667;SDS011;43499;52.366;12.912;2023-08-30T04:09:28;6.22;;;2.67;;
57667;SDS011;43499;52.366;12.912;2023-08-30T04:10:34;2.83;;;2.33;;
57667;SDS011;43499;52.366;12.912;2023-08-30T04:11:38;4.55;;;2.97;;
57667;SDS011;43499;52.366;12.912;2023-08-30T04:12:39;3.95;;;2.80;;
57667;SDS011;43499;52.366;12.912;2023-08-30T04:13:40;3.10;;;2.13;;
57667;SDS011;43499;52.366;12.912;2023-08-30T04:14:41;3.20;;;2.58;;
57667;SDS011;43499;52.366;12.912;2023-08-30T04:15:43;2.05;;;1.85;;
57667;SDS011;43499;52.366;12.912;2023-08-30T04:16:45;2.88;;;2.63;;
57667;SDS011;43499;52.366;12.912;2023-08-30T04:17:46;4.15;;;2.00;;
57667;SDS011;43499;52.366;12.912;2023-08-30T04:18:47;4.30;;;2.13;;
57667;SDS011;43499;52.366;12.912;2023-08-30T04:19:51;3.40;;;2.42;;
57667;SDS011;43499;52.366;12.912;2023-08-30T04:20:52;5.80;;;2.25;;
57667;SDS011;43499;52.366;12.912;2023-08-30T04:21:54;4.72;;;2.60;;
57667;SDS011;43499;52.366;12.912;2023-08-30T04:22:55;2.58;;;2.22;;
57667;SDS011;43499;52.366;12.912;2023-08-30T04:23:57;3.63;;;2.10;;
57667;SDS011;43499;52.366;12.912;2023-08-30T04:24:58;3.45;;;2.60;;
57667;SDS011;43499;52.366;12.912;2023-08-30T04:25:59;3.67;;;2.72;;
57667;SDS011;43499;52.366;12.912;2023-08-30T04:27:01;2.30;;;2.10;;
57667;SDS011;43499;52.366;12.912;2023-08-30T04:28:02;3.33;;;2.17;;
57667;SDS011;43499;52.366;12.912;2023-08-30T04:29:04;4.22;;;2.47;;
57667;SDS011;43499;52.366;12.912;2023-08-30T04:30:05;4.57;;;2.78;;
57667;SDS011;43499;52.366;12.912;2023-08-30T04:31:07;7.03;;;2.83;;
57667;SDS011;43499;52.366;12.912;2023-08-30T04:32:08;3.97;;;2.22;;
57667;SDS011;43499;52.366;12.912;2023-08-30T04:33:09;3.65;;;2.78;;
57667;SDS011;43499;52.366;12.912;2023-08-30T04:34:10;5.50;;;2.30;;
57667;SDS011;43499;52.366;12.912;2023-08-30T04:35:11;3.33;;;2.50;;
57667;SDS011;43499;52.366;12.912;2023-08-30T04:36:13;4.47;;;2.28;;
57667;SDS011;43499;52.366;12.912;2023-08-30T04:37:14;2.42;;;2.10;;
57667;SDS011;43499;52.366;12.912;2023-08-30T04:38:16;4.53;;;2.50;;
57667;SDS011;43499;52.366;12.912;2023-08-30T04:39:18;5.45;;;2.33;;
57667;SDS011;43499;52.366;12.912;2023-08-30T04:40:20;4.72;;;2.75;;
57667;SDS011;43499;52.366;12.912;2023-08-30T04:41:21;3.88;;;2.92;;
57667;SDS011;43499;52.366;12.912;2023-08-30T04:42:22;4.70;;;2.38;;
57667;SDS011;43499;52.366;12.912;2023-08-30T04:44:25;3.22;;;2.33;;
57667;SDS011;43499;52.366;12.912;2023-08-30T04:45:28;3.00;;;2.30;;
57667;SDS011;43499;52.366;12.912;2023-08-30T04:46:30;5.93;;;2.85;;
57667;SDS011;43499;52.366;12.912;2023-08-30T04:47:32;2.60;;;2.40;;
57667;SDS011;43499;52.366;12.912;2023-08-30T04:48:35;4.78;;;2.38;;
57667;SDS011;43499;52.366;12.912;2023-08-30T04:49:36;4.47;;;2.63;;
57667;SDS011;43499;52.366;12.912;2023-08-30T04:50:37;3.00;;;1.95;;
57667;SDS011;43499;52.366;12.912;2023-08-30T04:51:39;4.15;;;2.13;;
57667;SDS011;43499;52.366;12.912;2023-08-30T04:52:40;7.07;;;2.50;;
57667;SDS011;43499;52.366;12.912;2023-08-30T04:53:43;4.85;;;2.35;;
57667;SDS011;43499;52.366;12.912;2023-08-30T04:54:45;3.83;;;2.53;;
57667;SDS011;43499;52.366;12.912;2023-08-30T04:55:47;7.00;;;2.15;;
57667;SDS011;43499;52.366;12.912;2023-08-30T04:56:48;2.97;;;2.33;;
57667;SDS011;43499;52.366;12.912;2023-08-30T04:57:50;2.60;;;2.30;;
57667;SDS011;43499;52.366;12.912;2023-08-30T04:58:52;3.22;;;2.13;;
57667;SDS011;43499;52.366;12.912;2023-08-30T04:59:54;3.28;;;2.38;;
57667;SDS011;43499;52.366;12.912;2023-08-30T05:00:56;4.13;;;2.75;;
57667;SDS011;43499;52.366;12.912;2023-08-30T05:01:58;6.07;;;2.60;;
57667;SDS011;43499;52.366;12.912;2023-08-30T05:03:01;6.43;;;2.58;;
57667;SDS011;43499;52.366;12.912;2023-08-30T05:04:04;4.45;;;2.55;;
57667;SDS011;43499;52.366;12.912;2023-08-30T05:05:06;6.07;;;2.70;;
57667;SDS011;43499;52.366;12.912;2023-08-30T05:07:09;3.45;;;2.22;;
57667;SDS011;43499;52.366;12.912;2023-08-30T05:08:10;2.63;;;2.20;;
57667;SDS011;43499;52.366;12.912;2023-08-30T05:09:13;3.20;;;2.20;;
57667;SDS011;43499;52.366;12.912;2023-08-30T05:10:16;3.10;;;2.47;;
57667;SDS011;43499;52.366;12.912;2023-08-30T05:11:17;5.00;;;2.42;;
57667;SDS011;43499;52.366;12.912;2023-08-30T05:12:19;8.32;;;2.70;;
57667;SDS011;43499;52.366;12.912;2023-08-30T05:14:22;3.92;;;2.25;;
57667;SDS011;43499;52.366;12.912;2023-08-30T05:15:23;5.20;;;3.00;;
57667;SDS011;43499;52.366;12.912;2023-08-30T05:16:24;3.85;;;2.65;;
57667;SDS011;43499;52.366;12.912;2023-08-30T05:17:26;3.72;;;2.30;;
57667;SDS011;43499;52.366;12.912;2023-08-30T05:18:29;5.60;;;2.95;;
57667;SDS011;43499;52.366;12.912;2023-08-30T05:20:31;2.90;;;2.53;;
57667;SDS011;43499;52.366;12.912;2023-08-30T05:21:33;4.88;;;2.10;;
57667;SDS011;43499;52.366;12.912;2023-08-30T05:22:34;4.03;;;2.78;;
57667;SDS011;43499;52.366;12.912;2023-08-30T05:23:35;6.30;;;2.55;;
57667;SDS011;43499;52.366;12.912;2023-08-30T05:24:36;3.72;;;2.38;;
57667;SDS011;43499;52.366;12.912;2023-08-30T05:25:37;2.90;;;2.63;;
57667;SDS011;43499;52.366;12.912;2023-08-30T05:26:39;6.07;;;2.25;;
57667;SDS011;43499;52.366;12.912;2023-08-30T05:27:40;2.47;;;2.22;;
57667;SDS011;43499;52.366;12.912;2023-08-30T05:28:41;4.53;;;2.17;;
57667;SDS011;43499;52.366;12.912;2023-08-30T05:29:42;4.28;;;2.75;;
57667;SDS011;43499;52.366;12.912;2023-08-30T05:32:03;5.10;;;2.58;;
57667;SDS011;43499;52.366;12.912;2023-08-30T05:33:19;4.13;;;2.70;;
57667;SDS011;43499;52.366;12.912;2023-08-30T05:34:31;3.05;;;2.42;;
57667;SDS011;43499;52.366;12.912;2023-08-30T05:35:52;4.70;;;2.83;;
57667;SDS011;43499;52.366;12.912;2023-08-30T05:37:25;3.88;;;2.67;;
57667;SDS011;43499;52.366;12.912;2023-08-30T05:38:52;6.07;;;2.90;;
57667;SDS011;43499;52.366;12.912;2023-08-30T05:40:03;3.60;;;2.40;;
57667;SDS011;43499;52.366;12.912;2023-08-30T05:41:05;4.18;;;2.42;;
57667;SDS011;43499;52.366;12.912;2023-08-30T05:42:06;6.57;;;2.85;;
57667;SDS011;43499;52.366;12.912;2023-08-30T05:43:07;6.00;;;3.17;;
57667;SDS011;43499;52.366;12.912;2023-08-30T05:44:08;4.82;;;2.95;;
57667;SDS011;43499;52.366;12.912;2023-08-30T05:45:10;4.85;;;3.13;;
57667;SDS011;43499;52.366;12.912;2023-08-30T05:46:11;2.55;;;1.95;;
57667;SDS011;43499;52.366;12.912;2023-08-30T05:47:15;3.72;;;2.83;;
57667;SDS011;43499;52.366;12.912;2023-08-30T05:48:17;4.13;;;2.78;;
57667;SDS011;43499;52.366;12.912;2023-08-30T05:49:19;4.50;;;2.80;;
57667;SDS011;43499;52.366;12.912;2023-08-30T05:50:20;4.10;;;2.85;;
57667;SDS011;43499;52.366;12.912;2023-08-30T05:51:21;8.23;;;2.67;;
57667;SDS011;43499;52.366;12.912;2023-08-30T05:52:22;4.45;;;2.75;;
57667;SDS011;43499;52.366;12.912;2023-08-30T05:53:26;6.30;;;3.03;;
57667;SDS011;43499;52.366;12.912;2023-08-30T05:54:28;3.08;;;2.78;;
57667;SDS011;43499;52.366;12.912;2023-08-30T05:55:32;3.58;;;2.15;;
57667;SDS011;43499;52.366;12.912;2023-08-30T05:56:33;4.15;;;2.38;;
57667;SDS011;43499;52.366;12.912;2023-08-30T05:57:34;4.43;;;2.55;;
57667;SDS011;43499;52.366;12.912;2023-08-30T05:58:36;2.80;;;2.42;;
57667;SDS011;43499;52.366;12.912;2023-08-30T05:59:38;5.15;;;3.13;;
57667;SDS011;43499;52.366;12.912;2023-08-30T06:00:39;4.05;;;2.38;;
57667;SDS011;43499;52.366;12.912;2023-08-30T06:01:40;3.80;;;2.40;;
57667;SDS011;43499;52.366;12.912;2023-08-30T06:02:42;5.97;;;2.75;;
57667;SDS011;43499;52.366;12.912;2023-08-30T06:03:43;5.05;;;3.33;;
57667;SDS011;43499;52.366;12.912;2023-08-30T06:04:47;5.78;;;3.00;;
57667;SDS011;43499;52.366;12.912;2023-08-30T06:05:49;4.75;;;2.38;;
57667;SDS011;43499;52.366;12.912;2023-08-30T06:06:50;4.55;;;2.42;;
57667;SDS011;43499;52.366;12.912;2023-08-30T06:08:53;4.68;;;2.75;;
57667;SDS011;43499;52.366;12.912;2023-08-30T06:09:54;2.85;;;2.13;;
57667;SDS011;43499;52.366;12.912;2023-08-30T06:10:56;3.40;;;2.38;;
57667;SDS011;43499;52.366;12.912;2023-08-30T06:11:57;3.88;;;2.42;;
57667;SDS011;43499;52.366;12.912;2023-08-30T06:12:58;6.50;;;2.55;;
57667;SDS011;43499;52.366;12.912;2023-08-30T06:13:59;2.95;;;2.65;;
57667;SDS011;43499;52.366;12.912;2023-08-30T06:15:00;6.50;;;2.45;;
57667;SDS011;43499;52.366;12.912;2023-08-30T06:16:02;2.92;;;2.22;;
57667;SDS011;43499;52.366;12.912;2023-08-30T06:17:03;3.63;;;2.72;;
57667;SDS011;43499;52.366;12.912;2023-08-30T06:18:04;4.50;;;2.50;;
57667;SDS011;43499;52.366;12.912;2023-08-30T06:19:05;3.05;;;2.60;;
57667;SDS011;43499;52.366;12.912;2023-08-30T06:20:07;5.47;;;3.20;;
57667;SDS011;43499;52.366;12.912;2023-08-30T06:21:08;4.80;;;3.60;;
57667;SDS011;43499;52.366;12.912;2023-08-30T06:22:35;3.95;;;2.45;;
57667;SDS011;43499;52.366;12.912;2023-08-30T06:23:37;3.22;;;2.60;;
57667;SDS011;43499;52.366;12.912;2023-08-30T06:24:38;2.65;;;2.00;;
57667;SDS011;43499;52.366;12.912;2023-08-30T06:25:40;4.18;;;2.83;;
57667;SDS011;43499;52.366;12.912;2023-08-30T06:26:41;5.07;;;2.88;;
57667;SDS011;43499;52.366;12.912;2023-08-30T06:27:43;5.60;;;2.88;;
57667;SDS011;43499;52.366;12.912;2023-08-30T06:29:57;9.15;;;2.63;;
57667;SDS011;43499;52.366;12.912;2023-08-30T06:30:58;2.80;;;2.35;;
57667;SDS011;43499;52.366;12.912;2023-08-30T06:31:59;2.72;;;2.38;;
57667;SDS011;43499;52.366;12.912;2023-08-30T06:33:00;3.03;;;2.53;;
57667;SDS011;43499;52.366;12.912;2023-08-30T06:34:02;6.97;;;2.50;;